Time;durP1;ratioP1;P1;durP2;ratioP2;P2;SDS_P1;SDS_P2;PMS_P1;PMS_P2;Temp;Humidity;BMP_temperature;BMP_pressure;BME280_temperature;BME280_humidity;BME280_pressure;Samples;Min_cycle;Max_cycle;Signal;HPM_P1;HPM_P2
2021/06/10 00:00:35;;;;;;;8.13;4.80;;;16.70;99.90;;;;;;5036114;28;20021;-82
2021/06/10 00:03:01;;;;;;;6.13;3.70;;;16.70;99.90;;;;;;5044810;28;20083;-82
2021/06/10 00:05:27;;;;;;;10.40;3.78;;;16.70;99.90;;;;;;5045064;28;20029;-82
2021/06/10 00:07:54;;;;;;;11.68;4.03;;;16.70;99.90;;;;;;5035739;28;20108;-82
2021/06/10 00:10:22;;;;;;;6.78;3.60;;;16.70;99.90;;;;;;5034130;28;20034;-82
2021/06/10 00:12:49;;;;;;;10.85;3.95;;;16.70;99.90;;;;;;5047254;28;20030;-81
2021/06/10 00:15:20;;;;;;;7.75;4.20;;;16.70;99.90;;;;;;5042869;28;20032;-82
2021/06/10 00:17:46;;;;;;;10.68;4.22;;;16.70;99.90;;;;;;5044274;28;20028;-82
2021/06/10 00:20:14;;;;;;;11.75;5.78;;;16.80;99.90;;;;;;5039522;28;20462;-82
2021/06/10 00:22:40;;;;;;;12.15;4.78;;;16.70;99.90;;;;;;5032827;28;124970;-82
2021/06/10 00:25:07;;;;;;;8.10;4.82;;;16.70;99.90;;;;;;5042313;28;20033;-82
2021/06/10 00:27:33;;;;;;;15.05;5.20;;;16.70;99.90;;;;;;5034852;28;20029;-82
2021/06/10 00:29:59;;;;;;;13.20;5.10;;;16.80;99.90;;;;;;5052041;28;20028;-82
2021/06/10 00:32:25;;;;;;;20.40;5.80;;;16.70;99.90;;;;;;5034875;28;20036;-82
2021/06/10 00:34:50;;;;;;;7.57;4.93;;;16.80;99.90;;;;;;5051957;28;20036;-82
2021/06/10 00:37:17;;;;;;;14.73;5.78;;;16.70;99.90;;;;;;5034724;28;20029;-82
2021/06/10 00:39:42;;;;;;;11.35;6.47;;;16.70;99.90;;;;;;5034418;28;20518;-82
2021/06/10 00:42:09;;;;;;;14.10;6.18;;;16.70;99.90;;;;;;5044922;28;20025;-82
2021/06/10 00:44:35;;;;;;;12.57;6.25;;;16.70;99.90;;;;;;5049082;28;20021;-82
2021/06/10 00:47:01;;;;;;;16.63;6.68;;;16.70;99.90;;;;;;5043308;28;20080;-82
2021/06/10 00:49:27;;;;;;;17.67;7.05;;;16.70;99.90;;;;;;5033952;28;20017;-82
2021/06/10 00:51:54;;;;;;;15.18;7.07;;;16.70;99.90;;;;;;5033462;28;20029;-82
2021/06/10 00:54:20;;;;;;;17.38;7.00;;;16.70;99.90;;;;;;5037957;28;20438;-81
2021/06/10 00:56:46;;;;;;;14.20;6.63;;;16.70;99.90;;;;;;5040418;28;20036;-82
2021/06/10 00:59:12;;;;;;;19.00;7.25;;;16.60;99.90;;;;;;5045106;28;20034;-82
2021/06/10 01:01:38;;;;;;;19.77;7.40;;;16.70;99.90;;;;;;5048795;28;20076;-82
2021/06/10 01:04:03;;;;;;;23.05;8.05;;;16.60;99.90;;;;;;5044519;28;20455;-82
2021/06/10 01:06:55;;;;;;;14.35;7.88;;;16.60;99.90;;;;;;5036784;28;20021;-82
2021/06/10 01:09:23;;;;;;;15.95;7.57;;;16.50;99.90;;;;;;5037194;28;20121;-82
2021/06/10 01:12:02;;;;;;;15.38;7.40;;;16.50;99.90;;;;;;5033811;28;20029;-82
2021/06/10 01:14:42;;;;;;;14.73;8.55;;;16.50;99.90;;;;;;5022856;28;20083;-82
2021/06/10 01:17:10;;;;;;;17.15;8.38;;;16.50;99.90;;;;;;5033624;28;20451;-81
2021/06/10 01:19:41;;;;;;;21.20;8.23;;;16.50;99.90;;;;;;5033274;28;20018;-82
2021/06/10 01:22:25;;;;;;;14.57;7.60;;;16.50;99.90;;;;;;5033088;28;20109;-81
2021/06/10 01:24:59;;;;;;;27.20;9.18;;;16.40;99.90;;;;;;5042643;28;20082;-81
2021/06/10 01:27:31;;;;;;;17.73;8.18;;;16.40;99.90;;;;;;5035617;28;20033;-81
2021/06/10 01:30:29;;;;;;;13.25;8.45;;;16.40;99.90;;;;;;5040859;28;20034;-81
2021/06/10 01:32:58;;;;;;;19.55;8.85;;;16.40;99.90;;;;;;5038786;28;20018;-82
2021/06/10 01:35:27;;;;;;;15.05;8.80;;;16.40;99.90;;;;;;5038790;28;20094;-82
2021/06/10 01:37:56;;;;;;;19.40;9.32;;;16.40;99.90;;;;;;5033051;28;20032;-82
2021/06/10 01:40:25;;;;;;;18.35;10.13;;;16.40;99.90;;;;;;5033106;28;20160;-82
2021/06/10 01:42:51;;;;;;;22.70;10.27;;;16.30;99.90;;;;;;5031738;28;20044;-82
2021/06/10 01:45:19;;;;;;;20.65;9.95;;;16.30;99.90;;;;;;5045367;28;20033;-82
2021/06/10 01:47:46;;;;;;;21.40;10.85;;;16.30;99.90;;;;;;5036266;28;20032;-82
2021/06/10 01:50:14;;;;;;;22.00;11.82;;;16.30;99.90;;;;;;5032997;28;20428;-82
2021/06/10 01:52:41;;;;;;;25.10;11.07;;;16.30;99.90;;;;;;5045026;28;20493;-82
2021/06/10 01:55:10;;;;;;;26.05;11.18;;;16.30;99.90;;;;;;5040007;28;20396;-82
2021/06/10 01:57:37;;;;;;;22.60;11.40;;;16.30;99.90;;;;;;5046321;28;20021;-81
2021/06/10 02:00:06;;;;;;;20.02;11.90;;;16.30;99.90;;;;;;5038121;28;20485;-82
2021/06/10 02:02:35;;;;;;;30.35;12.68;;;16.20;99.90;;;;;;5031362;28;20028;-82
2021/06/10 02:05:02;;;;;;;30.77;12.18;;;16.20;99.90;;;;;;5045730;28;20029;-82
2021/06/10 02:07:29;;;;;;;22.73;12.82;;;16.20;99.90;;;;;;5033233;28;20120;-82
2021/06/10 02:09:56;;;;;;;27.85;14.60;;;16.20;99.90;;;;;;5052276;28;20070;-82
2021/06/10 02:12:21;;;;;;;32.35;12.77;;;16.20;99.90;;;;;;5036155;28;20020;-82
2021/06/10 02:14:47;;;;;;;27.33;13.48;;;16.30;99.90;;;;;;5033203;28;20535;-82
2021/06/10 02:17:17;;;;;;;22.42;13.05;;;16.40;99.90;;;;;;5045349;28;20025;-82
2021/06/10 02:19:43;;;;;;;21.42;12.88;;;16.40;99.90;;;;;;5032459;28;20488;-82
2021/06/10 02:22:08;;;;;;;22.83;12.82;;;16.50;99.90;;;;;;5037692;28;20047;-82
2021/06/10 02:24:34;;;;;;;25.92;12.82;;;16.50;99.90;;;;;;5039643;28;20021;-81
2021/06/10 02:27:00;;;;;;;24.52;13.38;;;16.60;99.90;;;;;;5039322;28;20391;-82
2021/06/10 02:29:25;;;;;;;28.67;13.35;;;16.60;99.90;;;;;;5042919;28;20053;-82
2021/06/10 02:31:51;;;;;;;30.80;14.98;;;16.60;99.90;;;;;;5037446;28;20098;-82
2021/06/10 02:34:17;;;;;;;25.48;14.27;;;16.70;99.90;;;;;;5043598;28;20032;-82
2021/06/10 02:36:46;;;;;;;29.50;14.73;;;16.70;99.90;;;;;;5053722;28;20028;-82
2021/06/10 02:39:16;;;;;;;24.17;14.40;;;16.70;99.90;;;;;;5038127;28;20068;-82
2021/06/10 02:41:50;;;;;;;25.02;13.90;;;16.60;99.90;;;;;;5037631;28;20097;-82
2021/06/10 02:44:16;;;;;;;24.52;13.63;;;16.60;99.90;;;;;;5046503;28;20086;-82
2021/06/10 02:46:42;;;;;;;26.15;13.77;;;16.60;99.90;;;;;;5047743;28;20021;-82
2021/06/10 02:49:12;;;;;;;30.30;14.98;;;16.60;99.90;;;;;;5036965;28;20026;-82
2021/06/10 02:51:39;;;;;;;29.85;15.60;;;16.60;99.90;;;;;;5046322;28;20030;-81
2021/06/10 02:54:07;;;;;;;34.38;15.82;;;16.60;99.90;;;;;;5036744;28;20053;-82
2021/06/10 02:56:35;;;;;;;30.85;16.50;;;16.60;99.90;;;;;;5030971;28;20167;-82
2021/06/10 02:59:02;;;;;;;33.75;17.30;;;16.60;99.90;;;;;;5032473;28;20061;-82
2021/06/10 03:01:31;;;;;;;28.52;15.48;;;16.50;99.90;;;;;;5036740;28;20087;-82
2021/06/10 03:03:57;;;;;;;23.15;14.35;;;16.50;99.90;;;;;;5039483;28;20416;-82
2021/06/10 03:06:24;;;;;;;37.33;16.10;;;16.40;99.90;;;;;;5042230;28;20028;-82
2021/06/10 03:08:51;;;;;;;24.27;13.63;;;16.40;99.90;;;;;;5043610;28;20105;-82
2021/06/10 03:11:17;;;;;;;24.20;14.93;;;16.30;99.90;;;;;;5032198;28;20515;-82
2021/06/10 03:13:45;;;;;;;34.20;16.00;;;16.30;99.90;;;;;;5045959;28;20484;-81
2021/06/10 03:16:12;;;;;;;30.70;15.60;;;16.30;99.90;;;;;;5037719;28;20030;-82
2021/06/10 03:18:38;;;;;;;28.42;14.90;;;16.30;99.90;;;;;;5048186;28;20021;-81
2021/06/10 03:21:04;;;;;;;27.63;15.55;;;16.30;99.90;;;;;;5041466;28;20030;-81
2021/06/10 03:23:31;;;;;;;27.98;15.27;;;16.30;99.90;;;;;;5035385;28;20125;-82
2021/06/10 03:26:01;;;;;;;30.42;16.83;;;16.20;99.90;;;;;;5040005;28;20032;-82
2021/06/10 03:28:28;;;;;;;34.30;16.25;;;16.10;99.90;;;;;;5041152;28;20032;-81
2021/06/10 03:30:54;;;;;;;31.77;16.42;;;16.10;99.90;;;;;;5041253;28;20079;-81
2021/06/10 03:33:21;;;;;;;27.17;16.95;;;16.10;99.90;;;;;;5041423;28;20037;-81
2021/06/10 03:35:48;;;;;;;32.55;17.73;;;16.00;99.90;;;;;;5035419;28;20488;-81
2021/06/10 03:38:14;;;;;;;36.03;18.33;;;16.00;99.90;;;;;;5054413;28;20027;-81
2021/06/10 03:40:44;;;;;;;40.80;19.42;;;16.00;99.90;;;;;;5041289;28;20029;-82
2021/06/10 03:43:12;;;;;;;40.78;19.05;;;16.00;99.90;;;;;;5041289;28;20025;-81
2021/06/10 03:45:38;;;;;;;38.08;18.67;;;16.00;99.90;;;;;;5035011;28;20088;-81
2021/06/10 03:48:05;;;;;;;36.92;19.27;;;16.00;99.90;;;;;;5035095;28;20032;-82
2021/06/10 03:50:32;;;;;;;36.97;19.88;;;16.00;99.90;;;;;;5041831;28;20067;-82
2021/06/10 03:52:58;;;;;;;41.25;20.67;;;16.00;99.90;;;;;;5035283;28;20030;-82
2021/06/10 03:55:24;;;;;;;38.55;22.33;;;15.90;99.90;;;;;;5043046;28;20021;-81
2021/06/10 03:57:50;;;;;;;46.85;21.50;;;15.90;99.90;;;;;;5049364;28;20485;-82
2021/06/10 04:00:16;;;;;;;46.67;20.75;;;15.80;99.90;;;;;;5046725;28;20384;-81
2021/06/10 04:02:42;;;;;;;40.03;19.50;;;15.80;99.90;;;;;;5040106;28;20108;-81
2021/06/10 04:05:08;;;;;;;48.63;21.85;;;15.70;99.90;;;;;;5048224;28;20365;-81
2021/06/10 04:07:35;;;;;;;46.05;22.48;;;15.70;99.90;;;;;;5049799;28;20033;-81
2021/06/10 04:10:00;;;;;;;43.30;22.20;;;15.60;99.90;;;;;;5054148;28;20035;-81
2021/06/10 04:12:26;;;;;;;43.97;23.08;;;15.60;99.90;;;;;;5044204;28;20026;-81
2021/06/10 04:14:52;;;;;;;47.33;22.77;;;15.50;99.90;;;;;;5047077;28;20113;-81
2021/06/10 04:17:18;;;;;;;52.25;23.95;;;15.50;99.90;;;;;;5049201;28;20079;-81
2021/06/10 04:19:44;;;;;;;50.22;24.30;;;15.50;99.90;;;;;;5046199;28;20029;-81
2021/06/10 04:22:10;;;;;;;44.70;23.67;;;15.50;99.90;;;;;;5041180;28;20051;-81
2021/06/10 04:24:36;;;;;;;55.60;24.85;;;15.50;99.90;;;;;;5044332;28;20116;-81
2021/06/10 04:27:04;;;;;;;54.47;24.73;;;15.50;99.90;;;;;;5046297;28;20120;-81
2021/06/10 04:29:30;;;;;;;46.45;23.85;;;15.50;99.90;;;;;;5034724;28;20024;-81
2021/06/10 04:31:56;;;;;;;45.20;23.35;;;15.40;99.90;;;;;;5053222;28;20036;-81
2021/06/10 04:34:22;;;;;;;52.13;24.33;;;15.50;99.90;;;;;;5040230;28;20040;-81
2021/06/10 04:36:48;;;;;;;56.13;24.08;;;15.50;99.90;;;;;;5041811;28;20079;-81
2021/06/10 04:39:14;;;;;;;50.05;22.70;;;15.50;99.90;;;;;;5041794;28;20488;-81
2021/06/10 04:41:39;;;;;;;46.53;22.08;;;15.50;99.90;;;;;;5044577;28;20065;-82
2021/06/10 04:44:05;;;;;;;44.72;23.00;;;15.40;99.90;;;;;;5047720;28;20053;-81
2021/06/10 04:46:32;;;;;;;48.00;23.05;;;15.50;99.90;;;;;;5049566;28;20017;-81
2021/06/10 04:48:59;;;;;;;47.72;22.70;;;15.50;99.90;;;;;;5054269;28;20118;-81
2021/06/10 04:51:26;;;;;;;43.17;22.73;;;15.50;99.90;;;;;;5040297;28;20508;-81
2021/06/10 04:53:53;;;;;;;47.63;22.55;;;15.60;99.90;;;;;;5040245;28;20025;-81
2021/06/10 04:56:20;;;;;;;43.47;21.88;;;15.60;99.90;;;;;;5040988;28;20129;-81
2021/06/10 04:58:46;;;;;;;40.80;20.65;;;15.70;99.90;;;;;;5048849;28;20032;-81
2021/06/10 05:01:12;;;;;;;42.78;21.30;;;15.70;99.90;;;;;;5040088;28;20030;-81
2021/06/10 05:03:37;;;;;;;34.63;21.10;;;15.80;99.90;;;;;;5033828;28;20045;-81
2021/06/10 05:06:04;;;;;;;35.92;23.00;;;15.80;99.90;;;;;;5034051;28;20014;-82
2021/06/10 05:08:29;;;;;;;37.40;21.00;;;15.90;99.90;;;;;;5033823;28;20025;-82
2021/06/10 05:10:55;;;;;;;34.80;17.80;;;16.00;99.90;;;;;;5033637;28;20036;-82
2021/06/10 05:13:20;;;;;;;34.35;18.58;;;16.10;99.90;;;;;;5042176;28;20048;-81
2021/06/10 05:15:46;;;;;;;28.38;16.45;;;16.20;99.90;;;;;;5050588;28;20480;-82
2021/06/10 05:18:12;;;;;;;25.67;15.55;;;16.20;99.90;;;;;;5053516;28;20069;-82
2021/06/10 05:20:37;;;;;;;24.35;14.75;;;16.20;99.90;;;;;;5038261;28;20164;-82
2021/06/10 05:23:03;;;;;;;22.83;13.95;;;16.30;99.90;;;;;;5033734;28;20442;-84
2021/06/10 05:25:29;;;;;;;21.33;12.60;;;16.40;99.90;;;;;;5037177;28;20087;-82
2021/06/10 05:27:55;;;;;;;17.77;12.30;;;16.50;99.90;;;;;;5046420;28;20395;-82
2021/06/10 05:30:21;;;;;;;21.20;12.95;;;16.60;99.90;;;;;;5038419;28;20029;-82
2021/06/10 05:32:46;;;;;;;17.33;12.50;;;16.70;99.90;;;;;;5044213;28;20028;-82
2021/06/10 05:35:13;;;;;;;18.50;11.95;;;16.80;99.90;;;;;;5033047;28;20396;-82
2021/06/10 05:37:38;;;;;;;14.43;11.63;;;16.90;99.90;;;;;;5031828;28;20037;-82
2021/06/10 05:40:09;;;;;;;19.23;11.10;;;17.10;99.90;;;;;;5039746;28;20025;-82
2021/06/10 05:42:34;;;;;;;14.10;10.18;;;17.20;99.90;;;;;;5053096;28;20017;-82
2021/06/10 05:45:00;;;;;;;13.27;9.35;;;17.40;99.90;;;;;;5036520;28;20026;-82
2021/06/10 05:47:26;;;;;;;12.95;7.88;;;17.60;99.90;;;;;;5044971;28;20456;-82
2021/06/10 05:49:52;;;;;;;8.45;7.05;;;17.80;99.90;;;;;;5041217;28;20021;-82
2021/06/10 05:52:18;;;;;;;9.18;6.75;;;18.00;99.90;;;;;;5036827;28;20099;-81
2021/06/10 05:54:43;;;;;;;7.85;6.43;;;18.10;99.90;;;;;;5035314;28;20021;-81
2021/06/10 05:57:11;;;;;;;10.68;5.95;;;18.20;99.90;;;;;;5043845;28;20032;-82
2021/06/10 05:59:37;;;;;;;8.93;6.28;;;18.30;99.90;;;;;;5050243;28;20017;-82
2021/06/10 06:02:02;;;;;;;8.10;5.55;;;18.40;99.90;;;;;;5032470;28;20086;-82
2021/06/10 06:04:28;;;;;;;6.93;5.03;;;18.60;99.90;;;;;;5037544;28;20014;-82
2021/06/10 06:06:54;;;;;;;13.48;5.10;;;18.60;99.90;;;;;;5032394;28;20499;-82
2021/06/10 06:09:21;;;;;;;6.45;5.05;;;18.60;99.90;;;;;;5031541;28;20025;-81
2021/06/10 06:11:50;;;;;;;7.65;5.20;;;18.60;99.90;;;;;;5028606;28;20029;-82
2021/06/10 06:14:18;;;;;;;8.82;4.78;;;18.50;99.90;;;;;;5031093;28;20025;-82
2021/06/10 06:16:44;;;;;;;8.88;5.65;;;18.60;99.90;;;;;;5034397;28;20071;-82
2021/06/10 06:19:12;;;;;;;6.95;5.63;;;18.60;99.90;;;;;;5030125;28;20026;-81
2021/06/10 06:21:39;;;;;;;13.25;5.43;;;18.60;99.90;;;;;;5029924;28;20377;-82
2021/06/10 06:24:06;;;;;;;10.82;5.22;;;18.60;99.90;;;;;;5031159;28;20083;-82
2021/06/10 06:26:32;;;;;;;9.02;5.75;;;18.50;99.90;;;;;;5032864;28;20036;-82
2021/06/10 06:28:59;;;;;;;6.45;5.47;;;18.50;99.90;;;;;;5030523;28;20029;-81
2021/06/10 06:31:26;;;;;;;8.25;5.68;;;18.50;99.90;;;;;;5029724;28;20025;-81
2021/06/10 06:33:52;;;;;;;11.57;5.80;;;18.60;99.90;;;;;;5030046;28;20507;-82
2021/06/10 06:36:18;;;;;;;11.68;6.35;;;18.60;99.90;;;;;;5030173;28;20037;-82
2021/06/10 06:38:44;;;;;;;9.75;6.47;;;18.50;99.90;;;;;;5029034;28;20036;-82
2021/06/10 06:41:10;;;;;;;13.88;6.60;;;18.50;99.90;;;;;;5027225;28;20059;-81
2021/06/10 06:43:36;;;;;;;12.55;6.47;;;18.60;99.90;;;;;;5029126;28;20109;-82
2021/06/10 06:46:06;;;;;;;9.95;6.10;;;18.60;99.90;;;;;;5030799;28;20117;-81
2021/06/10 06:48:31;;;;;;;11.13;6.18;;;18.60;99.90;;;;;;5038830;28;20087;-81
2021/06/10 06:50:59;;;;;;;8.55;5.90;;;18.70;99.90;;;;;;5034281;28;20021;-81
2021/06/10 06:53:25;;;;;;;9.15;6.07;;;18.70;99.90;;;;;;5033856;28;20129;-81
2021/06/10 06:55:50;;;;;;;13.77;6.03;;;18.90;99.90;;;;;;5033575;28;20124;-81
2021/06/10 06:58:16;;;;;;;10.20;5.30;;;19.20;99.90;;;;;;5031801;28;20103;-81
2021/06/10 07:00:42;;;;;;;10.45;5.68;;;19.50;99.90;;;;;;5030895;28;20454;-81
2021/06/10 07:03:07;;;;;;;6.65;5.88;;;19.70;99.90;;;;;;5032438;28;20040;-81
2021/06/10 07:05:33;;;;;;;12.60;6.05;;;19.90;99.90;;;;;;5037052;28;20021;-82
2021/06/10 07:07:59;;;;;;;6.55;5.22;;;20.00;99.90;;;;;;5032682;28;20037;-81
2021/06/10 07:10:24;;;;;;;7.28;5.35;;;20.00;99.90;;;;;;5032947;28;20672;-81
2021/06/10 07:12:50;;;;;;;10.20;5.05;;;20.10;99.90;;;;;;5032784;28;20087;-83
2021/06/10 07:15:16;;;;;;;9.38;5.85;;;20.30;99.90;;;;;;5037594;28;20103;-83
2021/06/10 07:17:41;;;;;;;16.05;6.25;;;20.40;99.90;;;;;;5031274;28;20061;-82
2021/06/10 07:20:08;;;;;;;8.75;6.05;;;20.30;99.90;;;;;;5032980;28;20104;-83
2021/06/10 07:22:37;;;;;;;8.32;6.25;;;20.40;99.90;;;;;;5034873;28;20091;-82
2021/06/10 07:25:04;;;;;;;8.90;5.30;;;20.30;99.90;;;;;;5031012;28;20025;-83
2021/06/10 07:27:30;;;;;;;9.60;5.65;;;20.40;99.90;;;;;;5030645;28;20038;-83
2021/06/10 07:29:58;;;;;;;13.15;5.38;;;20.60;99.90;;;;;;5032716;28;20028;-83
2021/06/10 07:32:23;;;;;;;9.35;5.10;;;21.50;99.90;;;;;;5030480;28;20029;-83
2021/06/10 07:34:49;;;;;;;10.68;4.90;;;23.90;99.70;;;;;;5032623;28;20455;-83
2021/06/10 07:37:15;;;;;;;12.60;4.65;;;25.80;96.50;;;;;;5033376;28;20026;-83
2021/06/10 07:39:41;;;;;;;12.13;4.75;;;26.60;92.50;;;;;;5032409;28;20025;-83
2021/06/10 07:42:07;;;;;;;11.52;4.30;;;27.10;91.80;;;;;;5037685;28;20025;-83
2021/06/10 07:44:33;;;;;;;11.13;3.67;;;27.80;90.10;;;;;;5031067;28;20084;-83
2021/06/10 07:46:58;;;;;;;11.15;4.50;;;28.60;89.20;;;;;;5035283;28;20037;-83
2021/06/10 07:49:24;;;;;;;8.02;4.30;;;27.20;88.60;;;;;;5033145;28;20091;-83
2021/06/10 07:51:50;;;;;;;11.35;4.72;;;25.60;91.90;;;;;;5031446;28;20344;-83
2021/06/10 07:54:15;;;;;;;8.38;4.88;;;26.10;92.10;;;;;;5032230;28;20384;-84
2021/06/10 07:56:41;;;;;;;15.02;4.88;;;27.50;90.20;;;;;;5031989;28;20033;-83
2021/06/10 07:59:07;;;;;;;11.15;4.35;;;28.70;87.50;;;;;;5032011;28;20503;-83
2021/06/10 08:01:33;;;;;;;7.75;4.22;;;29.70;84.70;;;;;;5032141;28;20037;-83
2021/06/10 08:03:59;;;;;;;6.57;4.10;;;29.50;83.70;;;;;;5031235;28;20026;-84
2021/06/10 08:06:24;;;;;;;5.90;4.32;;;30.10;81.30;;;;;;5031567;28;20029;-81
2021/06/10 08:08:50;;;;;;;9.27;4.38;;;30.40;79.20;;;;;;5031854;28;20071;-81
2021/06/10 08:11:17;;;;;;;7.82;3.72;;;30.80;77.60;;;;;;5032575;28;20056;-81
2021/06/10 08:13:42;;;;;;;7.53;4.40;;;32.10;75.00;;;;;;5030667;28;20037;-80
2021/06/10 08:16:08;;;;;;;9.10;4.35;;;31.70;73.80;;;;;;5031857;28;20037;-80
2021/06/10 08:18:34;;;;;;;7.70;4.15;;;32.20;73.80;;;;;;5032025;28;20025;-80
2021/06/10 08:21:00;;;;;;;6.57;4.75;;;32.60;71.00;;;;;;5031750;28;20424;-80
2021/06/10 08:23:27;;;;;;;10.95;4.95;;;32.20;70.90;;;;;;5040223;28;20592;-80
2021/06/10 08:25:57;;;;;;;9.77;5.03;;;31.40;70.90;;;;;;5031437;28;20036;-80
2021/06/10 08:28:23;;;;;;;11.45;4.50;;;31.40;71.10;;;;;;5029521;28;20032;-80
2021/06/10 08:30:49;;;;;;;9.43;4.45;;;30.80;72.70;;;;;;5032838;28;20111;-80
2021/06/10 08:33:15;;;;;;;8.25;4.70;;;31.50;71.30;;;;;;5031576;28;20057;-80
2021/06/10 08:35:41;;;;;;;10.65;4.82;;;31.00;72.10;;;;;;5032010;28;20033;-81
2021/06/10 08:38:09;;;;;;;10.38;5.10;;;31.90;70.30;;;;;;5031990;28;20037;-80
2021/06/10 08:40:37;;;;;;;9.70;5.53;;;31.50;70.90;;;;;;5033151;28;20040;-81
2021/06/10 08:43:03;;;;;;;8.98;5.70;;;31.60;71.00;;;;;;5031563;28;20036;-80
2021/06/10 08:45:30;;;;;;;8.70;6.50;;;31.60;71.90;;;;;;5031484;28;20033;-80
2021/06/10 08:47:56;;;;;;;7.22;6.50;;;32.30;70.00;;;;;;5041965;28;20021;-80
2021/06/10 08:50:23;;;;;;;17.10;6.35;;;31.10;71.20;;;;;;5032019;28;20103;-80
2021/06/10 08:52:50;;;;;;;7.80;6.00;;;30.90;72.40;;;;;;5030749;28;20029;-80
2021/06/10 08:55:17;;;;;;;14.75;7.10;;;31.40;70.90;;;;;;5030751;28;20128;-80
2021/06/10 08:57:43;;;;;;;14.18;6.70;;;31.20;71.10;;;;;;5031094;28;20025;-80
2021/06/10 09:00:09;;;;;;;10.15;6.78;;;31.80;70.50;;;;;;5038040;28;20147;-80
2021/06/10 09:02:36;;;;;;;11.07;6.57;;;32.50;69.90;;;;;;5029879;28;20404;-79
2021/06/10 09:05:07;;;;;;;7.30;5.68;;;32.60;67.60;;;;;;5031163;28;20033;-79
2021/06/10 09:07:37;;;;;;;19.17;6.85;;;33.30;66.20;;;;;;5031339;28;20535;-81
2021/06/10 09:10:05;;;;;;;7.28;5.60;;;33.20;65.70;;;;;;5030105;28;20033;-80
2021/06/10 09:12:51;;;;;;;13.57;6.63;;;33.40;67.40;;;;;;5029910;28;20018;-79
2021/06/10 09:15:19;;;;;;;10.25;6.50;;;32.40;66.10;;;;;;5029769;28;21709;-79
2021/06/10 09:17:46;;;;;;;13.20;5.93;;;31.50;68.00;;;;;;5030210;28;20028;-79
2021/06/10 09:20:18;;;;;;;11.23;6.22;;;31.40;69.60;;;;;;5029448;28;20037;-79
2021/06/10 09:22:44;;;;;;;14.07;6.30;;;32.10;68.20;;;;;;5030395;28;20046;-79
2021/06/10 09:25:12;;;;;;;6.90;6.20;;;31.20;69.60;;;;;;5030052;28;20108;-82
2021/06/10 09:28:00;;;;;;;10.15;5.90;;;30.70;70.00;;;;;;5028335;28;20022;-82
2021/06/10 09:30:37;;;;;;;14.38;7.10;;;31.30;69.30;;;;;;5031514;28;20116;-81
2021/06/10 09:33:19;;;;;;;14.15;6.45;;;31.50;69.30;;;;;;5030671;28;20022;-80
2021/06/10 09:35:46;;;;;;;17.50;5.70;;;30.90;70.00;;;;;;5030620;28;20514;-79
2021/06/10 09:38:20;;;;;;;12.45;6.15;;;31.00;72.00;;;;;;5030123;28;20044;-79
2021/06/10 09:40:47;;;;;;;9.77;5.57;;;31.80;69.40;;;;;;5031035;28;20029;-79
2021/06/10 09:43:14;;;;;;;7.55;5.18;;;32.00;67.10;;;;;;5030124;28;20014;-79
2021/06/10 09:45:43;;;;;;;9.20;6.22;;;31.50;68.20;;;;;;5029596;28;20523;-79
2021/06/10 09:48:09;;;;;;;8.82;5.55;;;31.70;68.10;;;;;;5040454;28;20100;-79
2021/06/10 09:50:43;;;;;;;10.32;5.50;;;31.50;67.40;;;;;;5031351;28;20160;-79
2021/06/10 09:53:16;;;;;;;7.47;4.47;;;31.20;68.00;;;;;;5032740;28;20452;-81
2021/06/10 09:55:45;;;;;;;7.22;5.30;;;31.10;67.80;;;;;;5030305;28;20488;-82
2021/06/10 09:58:14;;;;;;;20.58;9.73;;;30.10;69.30;;;;;;5030078;28;20067;-82
2021/06/10 10:00:46;;;;;;;7.13;5.28;;;30.10;70.00;;;;;;5030515;28;20112;-81
2021/06/10 10:03:29;;;;;;;10.55;5.07;;;30.60;68.90;;;;;;5027624;28;20079;-82
2021/06/10 10:06:02;;;;;;;7.40;4.70;;;30.80;68.80;;;;;;5025204;28;20040;-81
2021/06/10 10:08:29;;;;;;;16.45;5.07;;;30.50;68.70;;;;;;5029660;28;20025;-81
2021/06/10 10:10:56;;;;;;;7.03;5.18;;;30.70;70.30;;;;;;5029907;28;20033;-81
2021/06/10 10:13:25;;;;;;;10.75;5.57;;;31.40;66.50;;;;;;5030538;28;20029;-83
2021/06/10 10:15:51;;;;;;;16.23;4.50;;;31.20;67.20;;;;;;5034017;28;20053;-82
2021/06/10 10:18:18;;;;;;;10.60;4.15;;;31.10;65.40;;;;;;5030320;28;20041;-82
2021/06/10 10:20:44;;;;;;;2.95;2.75;;;30.50;65.00;;;;;;5030718;28;20065;-82
2021/06/10 10:23:11;;;;;;;5.80;2.60;;;30.00;64.50;;;;;;5030931;28;20049;-81
2021/06/10 10:25:37;;;;;;;9.15;3.30;;;30.00;64.70;;;;;;5033295;28;20041;-82
2021/06/10 10:28:08;;;;;;;5.50;2.60;;;29.90;65.20;;;;;;5032486;28;20056;-81
2021/06/10 10:30:35;;;;;;;6.03;3.42;;;30.20;63.70;;;;;;5031513;28;20029;-81
2021/06/10 10:33:21;;;;;;;9.18;4.97;;;29.80;64.70;;;;;;5034673;28;20373;-82
2021/06/10 10:35:58;;;;;;;11.20;5.25;;;30.40;64.60;;;;;;5034395;28;20036;-82
2021/06/10 10:38:32;;;;;;;7.72;3.10;;;30.00;65.70;;;;;;5031226;28;20480;-82
2021/06/10 10:41:03;;;;;;;10.75;3.55;;;29.90;65.10;;;;;;5033864;28;20026;-81
2021/06/10 10:43:30;;;;;;;5.60;4.20;;;30.50;64.90;;;;;;5031016;28;20779;-82
2021/06/10 10:46:19;;;;;;;6.70;4.13;;;30.40;64.30;;;;;;5043453;28;20032;-82
2021/06/10 10:48:50;;;;;;;5.25;3.90;;;30.60;64.30;;;;;;5026745;28;20119;-82
2021/06/10 10:51:36;;;;;;;7.90;5.40;;;30.80;64.00;;;;;;5035993;28;20361;-81
2021/06/10 10:54:10;;;;;;;6.43;4.10;;;30.80;64.30;;;;;;5042781;28;20060;-81
2021/06/10 10:56:41;;;;;;;4.25;3.83;;;31.30;64.60;;;;;;5044105;28;20025;-81
2021/06/10 10:59:20;;;;;;;6.63;3.88;;;31.60;62.30;;;;;;5020914;28;20405;-81
2021/06/10 11:02:17;;;;;;;12.10;4.32;;;31.50;62.60;;;;;;5029005;28;20030;-80
2021/06/10 11:04:49;;;;;;;7.78;3.90;;;31.20;62.20;;;;;;5039925;28;20040;-83
2021/06/10 11:07:33;;;;;;;7.13;3.80;;;30.90;63.30;;;;;;5047564;28;20017;-83
2021/06/10 11:10:00;;;;;;;7.97;5.00;;;30.70;63.30;;;;;;5031542;28;20100;-85
2021/06/10 11:12:53;;;;;;;5.68;3.30;;;30.30;63.90;;;;;;5035196;28;20013;-86
2021/06/10 11:15:23;;;;;;;5.65;3.90;;;30.40;64.20;;;;;;5033927;28;20038;-85
2021/06/10 11:17:51;;;;;;;5.32;4.40;;;31.20;63.30;;;;;;5034765;28;20022;-86
2021/06/10 11:20:18;;;;;;;5.47;4.35;;;30.90;63.30;;;;;;5034537;28;20029;-85
2021/06/10 11:22:44;;;;;;;8.68;4.90;;;30.10;64.90;;;;;;5034298;28;20037;-85
2021/06/10 11:25:35;;;;;;;10.05;4.70;;;30.60;64.10;;;;;;5032944;28;20030;-85
2021/06/10 11:28:14;;;;;;;8.70;4.40;;;31.50;64.00;;;;;;5034704;28;20030;-86
2021/06/10 11:30:40;;;;;;;9.93;4.82;;;30.90;63.40;;;;;;5029843;28;20029;-85
2021/06/10 11:33:10;;;;;;;12.77;4.72;;;31.60;63.00;;;;;;5032915;28;20032;-83
2021/06/10 11:36:00;;;;;;;7.00;3.30;;;32.10;62.70;;;;;;5031925;28;20117;-82
2021/06/10 11:38:32;;;;;;;6.13;3.65;;;31.90;61.80;;;;;;5032354;28;20025;-83
2021/06/10 11:41:06;;;;;;;4.00;2.85;;;31.00;63.40;;;;;;5033474;28;20029;-85
2021/06/10 11:43:35;;;;;;;7.40;3.25;;;31.30;62.70;;;;;;5028254;28;20028;-84
2021/06/10 11:46:04;;;;;;;7.72;3.70;;;30.40;63.80;;;;;;5032259;28;20393;-84
2021/06/10 11:48:39;;;;;;;13.40;3.40;;;30.30;64.50;;;;;;5042011;28;20070;-85
2021/06/10 11:51:26;;;;;;;45.03;4.40;;;30.20;65.60;;;;;;5033081;28;20076;-84
2021/06/10 11:53:55;;;;;;;7.70;3.53;;;29.50;66.90;;;;;;5030744;28;20026;-86
2021/06/10 11:56:26;;;;;;;6.15;3.55;;;29.50;66.90;;;;;;5028473;28;20116;-85
2021/06/10 11:58:53;;;;;;;5.20;3.40;;;29.40;67.40;;;;;;5024756;28;20029;-85
2021/06/10 12:01:19;;;;;;;5.82;3.90;;;29.40;68.20;;;;;;5030694;28;20025;-85
2021/06/10 12:03:46;;;;;;;11.75;3.67;;;28.70;68.70;;;;;;5031831;28;20017;-86
2021/06/10 12:06:13;;;;;;;4.78;2.80;;;29.30;68.10;;;;;;5031190;28;20029;-85
2021/06/10 12:08:43;;;;;;;5.60;2.88;;;29.00;68.60;;;;;;5028509;28;20032;-86
2021/06/10 12:11:11;;;;;;;6.38;3.70;;;29.70;68.70;;;;;;5029365;28;20045;-86
2021/06/10 12:13:51;;;;;;;10.57;4.72;;;29.70;67.60;;;;;;5021654;28;20400;-86
2021/06/10 12:16:19;;;;;;;6.00;3.03;;;29.50;67.90;;;;;;5031872;28;20021;-87
2021/06/10 12:18:48;;;;;;;7.05;3.70;;;29.80;68.30;;;;;;5029593;28;20029;-86
2021/06/10 12:21:19;;;;;;;7.95;4.88;;;29.90;67.60;;;;;;5031003;28;20835;-86
2021/06/10 12:23:47;;;;;;;5.57;3.47;;;29.60;68.50;;;;;;5027531;28;20042;-85
2021/06/10 12:26:16;;;;;;;4.90;4.50;;;29.90;67.90;;;;;;5031406;28;20030;-85
2021/06/10 12:28:48;;;;;;;10.77;4.13;;;30.00;68.20;;;;;;5020964;28;20041;-86
2021/06/10 12:31:20;;;;;;;4.78;3.75;;;30.40;69.40;;;;;;5026922;28;20033;-83
2021/06/10 12:33:57;;;;;;;9.20;4.70;;;30.80;66.80;;;;;;5032234;28;20524;-83
2021/06/10 12:36:39;;;;;;;11.95;4.47;;;30.20;67.20;;;;;;5031009;28;20425;-86
2021/06/10 12:39:12;;;;;;;6.13;3.97;;;28.50;70.40;;;;;;5026449;28;20516;-85
2021/06/10 12:41:47;;;;;;;9.40;4.88;;;27.70;72.70;;;;;;5027544;28;20404;-85
2021/06/10 12:44:16;;;;;;;5.85;4.82;;;28.10;74.00;;;;;;5024380;28;20574;-84